createdAt,value
2022-10-14T00:01:22.749Z,9.10
2022-10-14T00:04:03.284Z,9.11
2022-10-14T00:06:33.099Z,11.49
2022-10-14T00:09:04.554Z,12.00
2022-10-14T00:11:34.686Z,10.73
2022-10-14T00:14:10.662Z,9.61
2022-10-14T00:16:40.969Z,8.84
2022-10-14T00:19:11.581Z,10.19
2022-10-14T00:21:44.287Z,12.13
2022-10-14T00:24:13.794Z,11.55
2022-10-14T00:26:42.117Z,10.26
2022-10-14T00:29:18.824Z,9.30
2022-10-14T00:31:47.396Z,8.81
2022-10-14T00:34:16.573Z,11.09
2022-10-14T00:36:44.699Z,12.81
2022-10-14T00:39:16.239Z,13.05
2022-10-14T00:41:45.396Z,11.56
2022-10-14T00:44:13.004Z,10.02
2022-10-14T00:46:46.018Z,9.36
2022-10-14T00:49:19.007Z,11.29
2022-10-14T00:51:51.463Z,11.69
2022-10-14T00:54:23.617Z,10.25
2022-10-14T00:56:53.122Z,9.13
2022-10-14T00:59:20.921Z,10.49
2022-10-14T01:01:48.600Z,11.84
2022-10-14T01:04:17.063Z,11.02
2022-10-14T01:06:53.477Z,9.78
2022-10-14T01:10:03.373Z,8.77
2022-10-14T01:13:08.912Z,10.35
2022-10-14T01:15:57.858Z,11.78
2022-10-14T01:18:47.450Z,10.26
2022-10-14T01:21:27.239Z,9.17
2022-10-14T01:24:18.456Z,10.89
2022-10-14T01:26:58.179Z,12.04
2022-10-14T01:29:45.540Z,10.74
2022-10-14T01:32:21.096Z,9.48
2022-10-14T01:35:12.237Z,9.06
2022-10-14T01:37:49.100Z,11.28
2022-10-14T01:40:25.526Z,12.03
2022-10-14T01:42:59.582Z,10.62
2022-10-14T01:45:30.753Z,9.38
2022-10-14T01:48:01.948Z,9.56
2022-10-14T01:50:31.754Z,11.95
2022-10-14T01:53:07.913Z,12.30
2022-10-14T01:55:40.566Z,10.70
2022-10-14T01:58:09.289Z,9.50
2022-10-14T02:00:38.163Z,8.84
2022-10-14T02:03:05.846Z,10.68
2022-10-14T02:05:47.197Z,12.72
2022-10-14T02:08:17.713Z,13.08
2022-10-14T02:11:00.972Z,11.51
2022-10-14T02:14:01.089Z,9.91
2022-10-14T02:16:38.751Z,8.82
2022-10-14T02:22:36.786Z,12.41
2022-10-14T02:25:13.687Z,12.45
2022-10-14T02:27:44.649Z,10.79
2022-10-14T02:30:13.057Z,9.61
2022-10-14T02:32:42.843Z,8.77
2022-10-14T02:35:17.336Z,8.88
2022-10-14T02:37:48.409Z,11.53
2022-10-14T02:40:25.388Z,12.40
2022-10-14T02:42:55.699Z,11.12
2022-10-14T02:45:26.042Z,9.73
2022-10-14T02:47:54.540Z,9.58
2022-10-14T02:50:22.207Z,11.94
2022-10-14T02:52:52.447Z,11.79
2022-10-14T02:55:22.045Z,10.34
2022-10-14T02:57:49.874Z,9.23
2022-10-14T03:00:20.959Z,10.52
2022-10-14T03:02:48.938Z,12.07
2022-10-14T03:05:17.813Z,11.13
2022-10-14T03:07:45.442Z,9.83
2022-10-14T03:10:14.279Z,9.20
2022-10-14T03:12:41.960Z,11.34
2022-10-14T03:15:15.582Z,12.11
2022-10-14T03:17:43.299Z,10.82
2022-10-14T03:20:12.902Z,9.57
2022-10-14T03:22:46.690Z,10.99
2022-10-14T03:25:14.832Z,11.78
2022-10-14T03:27:51.400Z,10.49
2022-10-14T03:30:22.131Z,10.23
2022-10-14T03:32:58.831Z,12.18
2022-10-14T03:35:58.635Z,11.59
2022-10-14T03:38:36.954Z,10.18
2022-10-14T03:41:07.964Z,9.59
2022-10-14T03:43:36.323Z,11.62
2022-10-14T03:46:04.204Z,11.88
2022-10-14T03:48:32.219Z,10.57
2022-10-14T03:50:59.908Z,9.60
2022-10-14T03:53:28.002Z,10.79
2022-10-14T03:55:57.340Z,12.48
2022-10-14T03:58:25.906Z,11.63
2022-10-14T04:00:58.465Z,10.30
2022-10-14T04:03:32.673Z,10.08
2022-10-14T04:06:01.293Z,12.23
2022-10-14T04:08:30.808Z,12.54
2022-10-14T04:11:02.036Z,11.07
2022-10-14T04:13:32.880Z,9.89
2022-10-14T04:16:05.608Z,10.17
2022-10-14T04:18:57.693Z,12.81
2022-10-14T04:21:25.545Z,12.32
2022-10-14T04:23:53.449Z,10.95
2022-10-14T04:26:31.489Z,9.76
2022-10-14T04:28:59.566Z,11.08
2022-10-14T04:31:42.800Z,12.21
2022-10-14T04:34:12.624Z,10.91
2022-10-14T04:36:40.656Z,9.66
2022-10-14T04:39:21.200Z,10.79
2022-10-14T04:41:48.897Z,12.81
2022-10-14T04:44:18.960Z,12.87
2022-10-14T04:46:50.559Z,11.22
2022-10-14T04:49:18.381Z,9.82
2022-10-14T04:51:52.405Z,10.63
2022-10-14T04:54:29.071Z,12.36
2022-10-14T04:56:59.297Z,11.25
2022-10-14T04:59:27.116Z,9.91
2022-10-14T05:01:57.597Z,9.83
2022-10-14T05:04:32.201Z,11.83
2022-10-14T05:07:00.986Z,11.48
2022-10-14T05:09:29.205Z,10.25
2022-10-14T05:11:58.744Z,9.34
2022-10-14T05:14:35.827Z,11.06
2022-10-14T05:17:12.827Z,13.00
2022-10-14T05:19:41.234Z,12.39
2022-10-14T05:22:09.153Z,10.94
2022-10-14T05:24:41.110Z,9.82
2022-10-14T05:27:09.492Z,9.31
2022-10-14T05:29:37.582Z,11.14
2022-10-14T05:32:05.440Z,11.92
2022-10-14T05:34:42.640Z,10.64
2022-10-14T05:37:13.106Z,9.53
2022-10-14T05:39:45.753Z,10.19
2022-10-14T05:42:14.404Z,12.13
2022-10-14T05:44:42.720Z,12.31
2022-10-14T05:47:11.362Z,11.08
2022-10-14T05:49:39.265Z,10.05
2022-10-14T05:52:07.266Z,10.54
2022-10-14T05:54:35.496Z,12.19
2022-10-14T05:57:04.189Z,11.55
2022-10-14T05:59:34.640Z,10.43
2022-10-14T06:02:03.048Z,9.66
2022-10-14T06:04:31.010Z,11.06
2022-10-14T06:06:59.138Z,13.11
2022-10-14T06:09:26.844Z,13.32
2022-10-14T06:11:55.205Z,11.97
2022-10-14T06:14:23.565Z,10.82
2022-10-14T06:16:52.087Z,10.17
2022-10-14T06:19:20.148Z,11.97
2022-10-14T06:21:48.209Z,12.86
2022-10-14T06:24:16.111Z,11.60
2022-10-14T06:26:43.759Z,10.53
2022-10-14T06:29:11.559Z,10.61
2022-10-14T06:31:39.288Z,12.52
2022-10-14T06:34:07.450Z,12.52
2022-10-14T06:36:36.872Z,11.28
2022-10-14T06:39:05.359Z,10.61
2022-10-14T06:41:33.104Z,12.42
2022-10-14T06:44:01.034Z,13.14
2022-10-14T06:46:30.190Z,11.96
2022-10-14T06:48:57.826Z,10.97
2022-10-14T06:51:25.505Z,12.13
2022-10-14T06:53:53.524Z,13.41
2022-10-14T06:56:21.124Z,12.44
2022-10-14T06:58:48.787Z,11.37
2022-10-14T07:01:16.557Z,11.64
2022-10-14T07:03:44.386Z,13.95
2022-10-14T07:06:12.192Z,13.64
2022-10-14T07:08:39.992Z,12.23
2022-10-14T07:11:07.694Z,11.37
2022-10-14T07:13:35.584Z,12.13
2022-10-14T07:16:03.850Z,14.25
2022-10-14T07:18:32.108Z,13.49
2022-10-14T07:21:04.867Z,12.60
2022-10-14T07:23:32.628Z,11.88
2022-10-14T07:26:01.087Z,13.50
2022-10-14T07:28:29.181Z,14.41
2022-10-14T07:31:10.573Z,13.39
2022-10-14T07:33:39.755Z,12.28
2022-10-14T07:36:11.477Z,12.16
2022-10-14T07:38:39.389Z,14.47
2022-10-14T07:41:17.143Z,14.72
2022-10-14T07:43:48.325Z,13.65
2022-10-14T07:46:29.226Z,12.79
2022-10-14T07:48:58.158Z,12.18
2022-10-14T07:51:27.465Z,11.92
2022-10-14T07:53:57.060Z,13.93
2022-10-14T07:56:25.347Z,15.46
2022-10-14T07:58:53.659Z,14.62
2022-10-14T08:01:21.623Z,13.80
2022-10-14T08:03:49.432Z,13.16
2022-10-14T08:06:17.811Z,12.71
2022-10-14T08:08:45.555Z,13.66
2022-10-14T08:11:18.817Z,15.72
2022-10-14T08:13:47.065Z,15.36
2022-10-14T08:16:24.767Z,14.83
2022-10-14T08:18:53.390Z,14.53
2022-10-14T08:21:21.522Z,14.46
2022-10-14T08:23:49.647Z,14.61
2022-10-14T08:26:26.529Z,14.53
2022-10-14T08:28:54.476Z,14.22
2022-10-14T08:31:22.411Z,13.92
2022-10-14T08:33:50.621Z,13.63
2022-10-14T08:36:19.432Z,13.44
2022-10-14T08:38:48.453Z,14.34
2022-10-14T08:41:26.737Z,16.86
2022-10-14T08:44:17.497Z,16.54
2022-10-14T08:46:52.853Z,15.82
2022-10-14T08:49:34.738Z,15.46
2022-10-14T08:52:10.447Z,15.16
2022-10-14T08:54:45.948Z,14.99
2022-10-14T08:57:18.166Z,14.82
2022-10-14T08:59:46.489Z,14.62
2022-10-14T09:02:29.365Z,14.39
2022-10-14T09:04:59.756Z,14.22
2022-10-14T09:07:28.989Z,14.13
2022-10-14T09:10:03.736Z,14.09
2022-10-14T09:12:35.652Z,14.15
2022-10-14T09:15:18.717Z,14.36
2022-10-14T09:18:01.844Z,14.89
2022-10-14T09:20:29.721Z,15.44
2022-10-14T09:23:16.007Z,16.09
2022-10-14T09:25:49.938Z,16.69
2022-10-14T09:28:19.448Z,17.12
2022-10-14T09:30:47.370Z,17.43
2022-10-14T09:33:20.778Z,17.54
2022-10-14T09:35:49.452Z,17.54
2022-10-14T09:38:18.357Z,17.56
2022-10-14T09:40:49.935Z,17.59
2022-10-14T09:43:20.564Z,17.56
2022-10-14T09:46:17.460Z,17.36
2022-10-14T09:48:50.666Z,17.08
2022-10-14T09:51:22.812Z,16.92
2022-10-14T09:53:59.518Z,16.86
2022-10-14T09:56:36.237Z,16.77
2022-10-14T09:59:20.440Z,16.68
2022-10-14T10:01:57.602Z,16.61
2022-10-14T10:04:47.236Z,16.51
2022-10-14T10:07:33.466Z,16.54
2022-10-14T10:10:16.458Z,16.62
2022-10-14T10:12:47.078Z,16.66
2022-10-14T10:15:21.302Z,16.68
2022-10-14T10:17:50.321Z,16.66
2022-10-14T10:20:33.599Z,16.67
2022-10-14T10:23:28.955Z,16.73
2022-10-14T10:26:14.718Z,16.90
2022-10-14T10:28:48.308Z,17.06
2022-10-14T10:31:28.603Z,17.24
2022-10-14T10:34:09.521Z,17.43
2022-10-14T10:36:48.314Z,17.83
2022-10-14T10:39:36.150Z,18.51
2022-10-14T10:42:16.058Z,19.22
2022-10-14T10:44:43.958Z,19.47
2022-10-14T10:47:33.196Z,19.54
2022-10-14T10:50:16.631Z,19.76
2022-10-14T10:52:50.334Z,20.07
2022-10-14T10:55:30.050Z,20.36
2022-10-14T10:58:12.950Z,20.75
2022-10-14T11:00:54.829Z,21.28
2022-10-14T11:03:44.717Z,21.68
2022-10-14T11:06:44.561Z,21.80
2022-10-14T11:09:48.477Z,21.60
2022-10-14T11:12:26.485Z,21.30
2022-10-14T11:15:25.252Z,21.30
2022-10-14T11:18:23.158Z,21.49
2022-10-14T11:21:22.107Z,21.67
2022-10-14T11:24:11.836Z,21.86
2022-10-14T11:26:58.670Z,21.83
2022-10-14T11:29:38.257Z,21.73
2022-10-14T11:32:24.322Z,21.80
2022-10-14T11:35:06.079Z,22.02
2022-10-14T11:37:47.219Z,21.89
2022-10-14T11:40:17.851Z,21.64
2022-10-14T11:42:48.657Z,21.47
2022-10-14T11:45:18.774Z,21.21
2022-10-14T11:47:55.216Z,20.91
2022-10-14T11:50:37.317Z,20.74
2022-10-14T11:53:19.729Z,20.46
2022-10-14T11:55:57.611Z,20.19
2022-10-14T11:58:29.641Z,19.99
2022-10-14T12:01:17.105Z,19.88
2022-10-14T12:03:47.473Z,19.85
2022-10-14T12:06:24.844Z,19.72
2022-10-14T12:08:55.484Z,19.56
2022-10-14T12:11:35.311Z,19.49
2022-10-14T12:14:10.350Z,19.45
2022-10-14T12:16:41.595Z,19.36
2022-10-14T12:19:16.832Z,19.20
2022-10-14T12:21:49.697Z,19.10
2022-10-14T12:24:31.327Z,18.95
2022-10-14T12:27:01.980Z,18.73
2022-10-14T12:29:35.917Z,18.55
2022-10-14T12:32:03.569Z,18.44
2022-10-14T12:34:32.864Z,18.34
2022-10-14T12:37:24.520Z,18.30
2022-10-14T12:40:15.108Z,18.37
2022-10-14T12:42:57.859Z,18.55
2022-10-14T12:45:28.778Z,18.52
2022-10-14T12:48:25.959Z,18.47
2022-10-14T12:51:21.995Z,18.44
2022-10-14T12:54:06.874Z,18.37
2022-10-14T12:56:53.646Z,18.27
2022-10-14T12:59:29.378Z,18.13
2022-10-14T13:02:04.705Z,18.03
2022-10-14T13:04:33.357Z,17.98
2022-10-14T13:07:35.430Z,17.86
2022-10-14T13:10:45.986Z,17.73
2022-10-14T13:13:47.959Z,17.60
2022-10-14T13:16:21.629Z,17.53
2022-10-14T13:19:00.223Z,17.53
2022-10-14T13:21:36.725Z,17.52
2022-10-14T13:24:15.866Z,17.45
2022-10-14T13:26:55.892Z,17.43
2022-10-14T13:29:49.716Z,17.46
2022-10-14T13:32:42.857Z,17.51
2022-10-14T13:35:33.627Z,17.56
2022-10-14T13:38:14.616Z,17.53
2022-10-14T13:40:47.065Z,17.46
2022-10-14T13:43:29.451Z,17.37
2022-10-14T13:46:08.643Z,17.27
2022-10-14T13:48:40.538Z,17.20
2022-10-14T13:51:43.323Z,17.15
2022-10-14T13:54:25.673Z,17.03
2022-10-14T14:02:43.405Z,16.85
2022-10-14T14:05:18.754Z,16.78
2022-10-14T14:10:39.366Z,16.61
2022-10-14T14:13:19.851Z,16.57
2022-10-14T14:15:53.549Z,16.53
2022-10-14T14:21:30.386Z,16.42
2022-10-14T14:24:00.631Z,16.38
2022-10-14T14:26:39.591Z,16.33
2022-10-14T14:29:16.021Z,16.26
2022-10-14T14:32:06.511Z,16.20
2022-10-14T14:34:37.042Z,17.66
2022-10-14T14:37:25.124Z,20.25
2022-10-14T14:40:01.318Z,20.13
2022-10-14T14:42:36.130Z,19.01
2022-10-14T14:45:12.533Z,18.16
2022-10-14T14:47:41.633Z,17.54
2022-10-14T14:50:29.913Z,17.10
2022-10-14T14:53:04.414Z,16.68
2022-10-14T14:55:45.925Z,16.39
2022-10-14T14:58:28.889Z,16.13
2022-10-14T15:00:57.446Z,15.91
2022-10-14T15:03:32.809Z,16.77
2022-10-14T15:06:02.207Z,19.59
2022-10-14T15:08:38.031Z,20.53
2022-10-14T15:11:06.322Z,19.58
2022-10-14T15:13:39.796Z,18.46
2022-10-14T15:16:07.939Z,17.64
2022-10-14T15:32:15.618Z,18.38
2022-10-14T15:34:44.132Z,17.42
2022-10-14T15:37:13.566Z,16.78
2022-10-14T15:39:41.264Z,16.32
2022-10-14T15:42:12.060Z,15.99
2022-10-14T15:44:39.766Z,15.71
2022-10-14T15:47:21.015Z,15.52
2022-10-14T15:49:48.657Z,17.60
2022-10-14T15:52:19.356Z,19.42
2022-10-14T15:54:50.847Z,18.67
2022-10-14T15:57:18.537Z,17.57
2022-10-14T15:59:48.625Z,16.77
2022-10-14T16:02:23.022Z,16.20
2022-10-14T16:05:18.662Z,15.74
2022-10-14T16:07:41.986Z,15.33
2022-10-14T16:10:13.541Z,16.16
2022-10-14T16:12:41.269Z,18.82
2022-10-14T16:15:22.588Z,19.55
2022-10-14T16:17:52.879Z,18.31
2022-10-14T16:20:21.465Z,17.18
2022-10-14T16:22:49.863Z,16.43
2022-10-14T16:25:25.273Z,15.85
2022-10-14T16:27:52.864Z,15.39
2022-10-14T16:30:21.633Z,15.72
2022-10-14T16:32:50.251Z,18.02
2022-10-14T16:35:18.052Z,18.27
2022-10-14T16:37:46.402Z,17.26
2022-10-14T16:40:14.253Z,16.37
2022-10-14T16:42:42.139Z,15.74
2022-10-14T16:45:10.283Z,15.28
2022-10-14T16:47:38.126Z,16.04
2022-10-14T16:50:07.596Z,18.20
2022-10-14T16:52:54.177Z,18.06
2022-10-14T16:55:23.434Z,16.91
2022-10-14T16:57:50.999Z,16.10
2022-10-14T17:02:51.328Z,17.52
2022-10-14T17:05:18.919Z,18.89
2022-10-14T17:07:46.514Z,17.93
2022-10-14T17:10:14.062Z,16.79
2022-10-14T17:12:42.361Z,16.02
2022-10-14T17:15:10.362Z,15.43
2022-10-14T17:17:40.150Z,16.23
2022-10-14T17:20:09.268Z,18.34
2022-10-14T17:22:37.078Z,17.98
2022-10-14T17:25:05.758Z,16.89
2022-10-14T17:27:33.390Z,16.03
2022-10-14T17:30:00.912Z,15.40
2022-10-14T17:32:28.574Z,14.95
2022-10-14T17:34:56.228Z,15.77
2022-10-14T17:37:23.809Z,18.18
2022-10-14T17:39:51.412Z,18.92
2022-10-14T17:42:19.013Z,17.80
2022-10-14T17:44:47.704Z,16.74
2022-10-14T17:47:17.409Z,15.98
2022-10-14T17:49:44.914Z,15.39
2022-10-14T17:52:12.769Z,14.93
2022-10-14T17:54:40.265Z,15.83
2022-10-14T17:57:07.951Z,18.32
2022-10-14T17:59:35.553Z,19.38
2022-10-14T18:02:04.225Z,18.28
2022-10-14T18:04:32.858Z,16.97
2022-10-14T18:07:00.984Z,16.06
2022-10-14T18:09:28.594Z,15.42
2022-10-14T18:12:13.146Z,14.95
2022-10-14T18:14:41.655Z,16.63
2022-10-14T18:17:10.980Z,18.83
2022-10-14T18:19:40.880Z,19.05
2022-10-14T18:22:10.013Z,17.47
2022-10-14T18:24:38.692Z,16.31
2022-10-14T18:27:06.730Z,15.51
2022-10-14T18:29:34.298Z,16.06
2022-10-14T18:32:01.865Z,18.10
2022-10-14T18:34:29.865Z,17.73
2022-10-14T18:36:57.430Z,16.56
2022-10-14T18:39:25.330Z,15.68
2022-10-14T18:41:52.884Z,15.14
2022-10-14T18:44:20.511Z,16.85
2022-10-14T18:46:48.222Z,18.76
2022-10-14T18:49:16.078Z,18.36
2022-10-14T18:51:43.679Z,16.99
2022-10-14T18:54:14.895Z,15.96
2022-10-14T18:56:44.493Z,15.22
2022-10-14T18:59:21.130Z,16.43
2022-10-14T19:01:53.098Z,17.96
2022-10-14T19:04:23.786Z,17.00
2022-10-14T19:06:51.471Z,15.99
2022-10-14T19:09:29.498Z,15.23
2022-10-14T19:11:59.208Z,15.90
2022-10-14T19:14:28.908Z,18.20
2022-10-14T19:16:56.623Z,19.40
2022-10-14T19:19:24.277Z,19.35
2022-10-14T19:21:54.417Z,17.97
2022-10-14T19:24:22.300Z,16.74
2022-10-14T19:26:50.155Z,15.81
2022-10-14T19:29:18.174Z,15.13
2022-10-14T19:31:45.912Z,15.62
2022-10-14T19:34:15.618Z,17.78
2022-10-14T19:36:44.686Z,18.52
2022-10-14T19:39:15.249Z,17.28
2022-10-14T19:41:44.446Z,16.03
2022-10-14T19:44:13.904Z,15.14
2022-10-14T19:46:42.269Z,15.80
2022-10-14T19:49:12.960Z,17.84
2022-10-14T19:51:41.049Z,17.70
2022-10-14T19:54:10.660Z,16.46
2022-10-14T19:56:38.501Z,15.39
2022-10-14T19:59:06.197Z,15.79
2022-10-14T20:01:33.941Z,17.88
2022-10-14T20:04:02.359Z,17.91
2022-10-14T20:06:33.791Z,16.57
2022-10-14T20:09:02.036Z,15.46
2022-10-14T20:11:30.651Z,15.65
2022-10-14T20:13:58.813Z,17.57
2022-10-14T20:16:27.303Z,18.18
2022-10-14T20:18:56.330Z,17.01
2022-10-14T20:21:24.221Z,15.78
2022-10-14T20:23:51.900Z,14.90
2022-10-14T20:26:21.497Z,15.31
2022-10-14T20:28:50.076Z,17.47
2022-10-14T20:31:22.581Z,18.59
2022-10-14T20:33:50.252Z,18.20
2022-10-14T20:36:20.747Z,16.78
2022-10-14T20:38:49.889Z,15.60
2022-10-14T20:41:26.216Z,14.68
2022-10-14T20:43:55.581Z,15.16
2022-10-14T20:46:24.681Z,17.32
2022-10-14T20:48:57.124Z,18.07
2022-10-14T20:51:25.375Z,17.08
2022-10-14T20:54:01.822Z,15.77
2022-10-14T20:56:33.101Z,14.69
2022-10-14T20:59:03.212Z,13.96
2022-10-14T21:01:32.551Z,13.97
2022-10-14T21:04:00.926Z,16.25
2022-10-14T21:06:29.115Z,17.46
2022-10-14T21:08:57.890Z,16.58
2022-10-14T21:11:26.333Z,15.19
2022-10-14T21:13:56.550Z,14.19
2022-10-14T21:16:27.608Z,14.47
2022-10-14T21:18:58.299Z,16.52
2022-10-14T21:21:29.157Z,16.96
2022-10-14T21:23:58.290Z,15.54
2022-10-14T21:26:26.700Z,14.33
2022-10-14T21:28:54.390Z,14.48
2022-10-14T21:31:22.151Z,16.40
2022-10-14T21:34:01.152Z,16.48
2022-10-14T21:36:32.231Z,15.05
2022-10-14T21:39:01.408Z,13.94
2022-10-14T21:41:29.011Z,14.17
2022-10-14T21:43:59.152Z,16.17
2022-10-14T21:46:27.839Z,16.07
2022-10-14T21:48:57.273Z,14.74
2022-10-14T21:51:26.291Z,13.65
2022-10-14T21:53:54.557Z,14.23
2022-10-14T21:56:24.260Z,16.20
2022-10-14T21:58:52.094Z,16.49
2022-10-14T22:01:26.928Z,15.06
2022-10-14T22:04:06.205Z,13.98
2022-10-14T22:06:35.456Z,15.51
2022-10-14T22:09:06.904Z,16.65
2022-10-14T22:11:37.651Z,15.53
2022-10-14T22:14:08.165Z,14.19
2022-10-14T22:16:36.100Z,14.20
2022-10-14T22:19:05.645Z,15.88
2022-10-14T22:21:35.171Z,16.39
2022-10-14T22:24:03.465Z,15.06
2022-10-14T22:26:31.264Z,14.86
2022-10-14T22:29:00.271Z,16.55
2022-10-14T22:31:29.526Z,16.60
2022-10-14T22:33:58.306Z,15.18
2022-10-14T22:36:28.409Z,13.94
2022-10-14T22:38:57.699Z,14.85
2022-10-14T22:41:28.763Z,16.46
2022-10-14T22:43:59.637Z,15.80
2022-10-14T22:46:29.526Z,14.46
2022-10-14T22:48:58.501Z,13.41
2022-10-14T22:51:29.445Z,14.37
2022-10-14T22:53:57.230Z,16.37
2022-10-14T22:56:27.248Z,15.97
2022-10-14T22:59:03.986Z,14.52
2022-10-14T23:01:31.765Z,13.47
2022-10-14T23:04:00.549Z,14.72
2022-10-14T23:06:28.981Z,16.24
2022-10-14T23:08:57.364Z,15.58
2022-10-14T23:11:25.204Z,14.21
2022-10-14T23:13:53.434Z,13.16
2022-10-14T23:16:23.393Z,13.14
2022-10-14T23:18:51.885Z,15.34
2022-10-14T23:21:21.063Z,16.78
2022-10-14T23:23:50.640Z,16.81
2022-10-14T23:26:21.416Z,15.32
2022-10-14T23:28:56.283Z,13.98
2022-10-14T23:31:26.966Z,13.03
2022-10-14T23:33:55.209Z,12.36
2022-10-14T23:36:23.238Z,12.79
2022-10-14T23:38:52.516Z,15.18
2022-10-14T23:41:22.169Z,16.66
2022-10-14T23:43:51.522Z,16.95
2022-10-14T23:46:20.182Z,15.55
2022-10-14T23:48:55.748Z,14.09
2022-10-14T23:51:35.530Z,12.93
2022-10-14T23:54:03.573Z,12.22
2022-10-14T23:56:31.063Z,11.68
2022-10-14T23:58:58.714Z,12.41
